sensor_id;sensor_type;location;lat;lon;timestamp;P1;durP1;ratioP1;P2;durP2;ratioP2
18338;SDS011;9295;44.484;11.240;2022-11-03T00:01:33;61.63;;;34.70;;
18338;SDS011;9295;44.484;11.240;2022-11-03T00:04:03;65.13;;;35.30;;
18338;SDS011;9295;44.484;11.240;2022-11-03T00:06:33;76.60;;;37.73;;
18338;SDS011;9295;44.484;11.240;2022-11-03T00:09:02;72.73;;;36.10;;
18338;SDS011;9295;44.484;11.240;2022-11-03T00:11:34;72.97;;;35.90;;
18338;SDS011;9295;44.484;11.240;2022-11-03T00:14:03;66.60;;;36.90;;
18338;SDS011;9295;44.484;11.240;2022-11-03T00:16:33;66.47;;;36.00;;
18338;SDS011;9295;44.484;11.240;2022-11-03T00:19:01;63.53;;;35.80;;
18338;SDS011;9295;44.484;11.240;2022-11-03T00:21:30;65.47;;;35.37;;
18338;SDS011;9295;44.484;11.240;2022-11-03T00:23:59;63.07;;;36.07;;
18338;SDS011;9295;44.484;11.240;2022-11-03T00:26:28;64.97;;;36.33;;
18338;SDS011;9295;44.484;11.240;2022-11-03T00:29:00;67.07;;;34.27;;
18338;SDS011;9295;44.484;11.240;2022-11-03T00:31:33;64.63;;;36.07;;
18338;SDS011;9295;44.484;11.240;2022-11-03T00:34:03;80.23;;;36.73;;
18338;SDS011;9295;44.484;11.240;2022-11-03T00:36:33;66.80;;;34.87;;
18338;SDS011;9295;44.484;11.240;2022-11-03T00:39:03;68.40;;;35.93;;
18338;SDS011;9295;44.484;11.240;2022-11-03T00:41:32;68.83;;;35.93;;
18338;SDS011;9295;44.484;11.240;2022-11-03T00:44:02;65.20;;;35.70;;
18338;SDS011;9295;44.484;11.240;2022-11-03T00:46:31;66.10;;;35.63;;
18338;SDS011;9295;44.484;11.240;2022-11-03T00:49:01;64.47;;;35.90;;
18338;SDS011;9295;44.484;11.240;2022-11-03T00:51:30;66.23;;;35.50;;
18338;SDS011;9295;44.484;11.240;2022-11-03T00:54:00;70.70;;;36.77;;
18338;SDS011;9295;44.484;11.240;2022-11-03T00:56:30;73.60;;;37.70;;
18338;SDS011;9295;44.484;11.240;2022-11-03T00:59:00;72.13;;;36.00;;
18338;SDS011;9295;44.484;11.240;2022-11-03T01:01:32;66.20;;;35.77;;
18338;SDS011;9295;44.484;11.240;2022-11-03T01:04:09;76.73;;;39.03;;
18338;SDS011;9295;44.484;11.240;2022-11-03T01:07:07;75.03;;;36.87;;
18338;SDS011;9295;44.484;11.240;2022-11-03T01:09:35;68.73;;;37.10;;
18338;SDS011;9295;44.484;11.240;2022-11-03T01:12:06;73.30;;;37.80;;
18338;SDS011;9295;44.484;11.240;2022-11-03T01:14:38;67.07;;;36.80;;
18338;SDS011;9295;44.484;11.240;2022-11-03T01:17:09;76.53;;;38.77;;
18338;SDS011;9295;44.484;11.240;2022-11-03T01:19:39;74.90;;;37.47;;
18338;SDS011;9295;44.484;11.240;2022-11-03T01:22:07;71.20;;;37.93;;
18338;SDS011;9295;44.484;11.240;2022-11-03T01:24:37;66.10;;;34.37;;
18338;SDS011;9295;44.484;11.240;2022-11-03T01:27:07;69.40;;;37.70;;
18338;SDS011;9295;44.484;11.240;2022-11-03T01:29:37;72.40;;;37.37;;
18338;SDS011;9295;44.484;11.240;2022-11-03T01:32:06;75.97;;;38.80;;
18338;SDS011;9295;44.484;11.240;2022-11-03T01:34:35;77.63;;;37.40;;
18338;SDS011;9295;44.484;11.240;2022-11-03T01:37:03;69.87;;;38.33;;
18338;SDS011;9295;44.484;11.240;2022-11-03T01:39:32;72.33;;;35.90;;
18338;SDS011;9295;44.484;11.240;2022-11-03T01:42:01;80.97;;;39.70;;
18338;SDS011;9295;44.484;11.240;2022-11-03T01:44:33;75.20;;;37.17;;
18338;SDS011;9295;44.484;11.240;2022-11-03T01:49:54;69.97;;;36.73;;
18338;SDS011;9295;44.484;11.240;2022-11-03T01:52:28;79.03;;;38.20;;
18338;SDS011;9295;44.484;11.240;2022-11-03T01:54:59;75.43;;;37.30;;
18338;SDS011;9295;44.484;11.240;2022-11-03T01:57:32;73.80;;;38.20;;
18338;SDS011;9295;44.484;11.240;2022-11-03T02:00:04;68.90;;;36.10;;
18338;SDS011;9295;44.484;11.240;2022-11-03T02:02:41;73.43;;;37.27;;
18338;SDS011;9295;44.484;11.240;2022-11-03T02:05:10;76.33;;;39.20;;
18338;SDS011;9295;44.484;11.240;2022-11-03T02:07:43;69.83;;;35.77;;
18338;SDS011;9295;44.484;11.240;2022-11-03T02:10:16;64.93;;;36.73;;
18338;SDS011;9295;44.484;11.240;2022-11-03T02:12:45;66.40;;;35.20;;
18338;SDS011;9295;44.484;11.240;2022-11-03T02:15:15;82.43;;;35.73;;
18338;SDS011;9295;44.484;11.240;2022-11-03T02:17:48;75.43;;;37.37;;
18338;SDS011;9295;44.484;11.240;2022-11-03T02:20:19;65.20;;;35.90;;
18338;SDS011;9295;44.484;11.240;2022-11-03T02:25:43;63.03;;;35.97;;
18338;SDS011;9295;44.484;11.240;2022-11-03T02:28:14;70.37;;;36.50;;
18338;SDS011;9295;44.484;11.240;2022-11-03T02:33:40;77.30;;;37.47;;
18338;SDS011;9295;44.484;11.240;2022-11-03T02:36:16;68.10;;;37.20;;
18338;SDS011;9295;44.484;11.240;2022-11-03T02:38:47;68.93;;;35.90;;
18338;SDS011;9295;44.484;11.240;2022-11-03T02:41:24;68.67;;;38.70;;
18338;SDS011;9295;44.484;11.240;2022-11-03T02:43:55;75.83;;;37.43;;
18338;SDS011;9295;44.484;11.240;2022-11-03T02:46:24;76.70;;;39.00;;
18338;SDS011;9295;44.484;11.240;2022-11-03T02:48:54;67.17;;;38.33;;
18338;SDS011;9295;44.484;11.240;2022-11-03T02:51:23;80.07;;;39.97;;
18338;SDS011;9295;44.484;11.240;2022-11-03T02:53:53;71.90;;;39.27;;
18338;SDS011;9295;44.484;11.240;2022-11-03T02:56:30;88.37;;;39.90;;
18338;SDS011;9295;44.484;11.240;2022-11-03T02:59:05;73.90;;;40.00;;
18338;SDS011;9295;44.484;11.240;2022-11-03T03:01:38;68.17;;;37.37;;
18338;SDS011;9295;44.484;11.240;2022-11-03T03:04:14;73.77;;;38.37;;
18338;SDS011;9295;44.484;11.240;2022-11-03T03:06:48;74.33;;;39.50;;
18338;SDS011;9295;44.484;11.240;2022-11-03T03:09:20;78.63;;;39.87;;
18338;SDS011;9295;44.484;11.240;2022-11-03T03:11:53;73.87;;;39.20;;
18338;SDS011;9295;44.484;11.240;2022-11-03T03:14:26;72.87;;;39.80;;
18338;SDS011;9295;44.484;11.240;2022-11-03T03:16:59;85.73;;;41.00;;
18338;SDS011;9295;44.484;11.240;2022-11-03T03:19:33;91.17;;;43.70;;
18338;SDS011;9295;44.484;11.240;2022-11-03T03:22:12;85.27;;;45.07;;
18338;SDS011;9295;44.484;11.240;2022-11-03T03:24:45;96.87;;;43.20;;
18338;SDS011;9295;44.484;11.240;2022-11-03T03:27:20;85.50;;;42.77;;
18338;SDS011;9295;44.484;11.240;2022-11-03T03:29:53;77.97;;;42.17;;
18338;SDS011;9295;44.484;11.240;2022-11-03T03:32:25;86.80;;;44.83;;
18338;SDS011;9295;44.484;11.240;2022-11-03T03:34:57;97.27;;;43.00;;
18338;SDS011;9295;44.484;11.240;2022-11-03T03:37:27;82.47;;;43.37;;
18338;SDS011;9295;44.484;11.240;2022-11-03T03:39:58;87.03;;;45.30;;
18338;SDS011;9295;44.484;11.240;2022-11-03T03:42:33;87.20;;;43.60;;
18338;SDS011;9295;44.484;11.240;2022-11-03T03:45:03;80.43;;;42.23;;
18338;SDS011;9295;44.484;11.240;2022-11-03T03:47:35;97.87;;;45.23;;
18338;SDS011;9295;44.484;11.240;2022-11-03T03:50:04;93.93;;;44.93;;
18338;SDS011;9295;44.484;11.240;2022-11-03T03:52:33;89.53;;;43.77;;
18338;SDS011;9295;44.484;11.240;2022-11-03T03:55:02;89.77;;;44.17;;
18338;SDS011;9295;44.484;11.240;2022-11-03T03:57:35;84.53;;;43.33;;
18338;SDS011;9295;44.484;11.240;2022-11-03T04:00:04;86.87;;;42.67;;
18338;SDS011;9295;44.484;11.240;2022-11-03T04:02:37;96.37;;;45.30;;
18338;SDS011;9295;44.484;11.240;2022-11-03T04:05:06;86.80;;;41.50;;
18338;SDS011;9295;44.484;11.240;2022-11-03T04:07:34;82.83;;;41.33;;
18338;SDS011;9295;44.484;11.240;2022-11-03T04:10:15;95.20;;;42.60;;
18338;SDS011;9295;44.484;11.240;2022-11-03T04:12:46;84.23;;;39.90;;
18338;SDS011;9295;44.484;11.240;2022-11-03T04:15:32;86.03;;;40.10;;
18338;SDS011;9295;44.484;11.240;2022-11-03T04:18:19;80.77;;;41.23;;
18338;SDS011;9295;44.484;11.240;2022-11-03T04:21:07;82.20;;;40.97;;
18338;SDS011;9295;44.484;11.240;2022-11-03T04:23:56;87.87;;;40.77;;
18338;SDS011;9295;44.484;11.240;2022-11-03T04:26:26;97.33;;;42.07;;
18338;SDS011;9295;44.484;11.240;2022-11-03T04:28:56;85.83;;;42.67;;
18338;SDS011;9295;44.484;11.240;2022-11-03T04:31:25;91.23;;;43.20;;
18338;SDS011;9295;44.484;11.240;2022-11-03T04:33:55;95.20;;;44.07;;
18338;SDS011;9295;44.484;11.240;2022-11-03T04:36:24;82.87;;;41.93;;
18338;SDS011;9295;44.484;11.240;2022-11-03T04:38:52;92.13;;;41.97;;
18338;SDS011;9295;44.484;11.240;2022-11-03T04:41:22;90.23;;;43.80;;
18338;SDS011;9295;44.484;11.240;2022-11-03T04:43:52;81.40;;;40.27;;
18338;SDS011;9295;44.484;11.240;2022-11-03T04:46:24;76.40;;;38.50;;
18338;SDS011;9295;44.484;11.240;2022-11-03T04:48:54;88.23;;;41.53;;
18338;SDS011;9295;44.484;11.240;2022-11-03T04:51:25;87.13;;;42.23;;
18338;SDS011;9295;44.484;11.240;2022-11-03T04:53:58;83.77;;;41.50;;
18338;SDS011;9295;44.484;11.240;2022-11-03T04:56:29;84.33;;;42.90;;
18338;SDS011;9295;44.484;11.240;2022-11-03T04:58:59;96.33;;;43.57;;
18338;SDS011;9295;44.484;11.240;2022-11-03T05:01:29;86.57;;;43.07;;
18338;SDS011;9295;44.484;11.240;2022-11-03T05:03:57;79.07;;;40.17;;
18338;SDS011;9295;44.484;11.240;2022-11-03T05:06:26;86.17;;;41.70;;
18338;SDS011;9295;44.484;11.240;2022-11-03T05:08:57;97.53;;;43.33;;
18338;SDS011;9295;44.484;11.240;2022-11-03T05:11:29;95.77;;;42.60;;
18338;SDS011;9295;44.484;11.240;2022-11-03T05:13:59;78.07;;;40.43;;
18338;SDS011;9295;44.484;11.240;2022-11-03T05:16:30;80.70;;;39.70;;
18338;SDS011;9295;44.484;11.240;2022-11-03T05:19:00;79.60;;;41.40;;
18338;SDS011;9295;44.484;11.240;2022-11-03T05:21:29;82.77;;;40.43;;
18338;SDS011;9295;44.484;11.240;2022-11-03T05:24:00;87.37;;;41.00;;
18338;SDS011;9295;44.484;11.240;2022-11-03T05:26:31;85.33;;;42.07;;
18338;SDS011;9295;44.484;11.240;2022-11-03T05:29:02;91.27;;;41.77;;
18338;SDS011;9295;44.484;11.240;2022-11-03T05:31:37;95.13;;;41.90;;
18338;SDS011;9295;44.484;11.240;2022-11-03T05:34:18;82.57;;;42.60;;
18338;SDS011;9295;44.484;11.240;2022-11-03T05:36:59;81.67;;;39.97;;
18338;SDS011;9295;44.484;11.240;2022-11-03T05:39:48;77.80;;;40.03;;
18338;SDS011;9295;44.484;11.240;2022-11-03T05:42:19;80.10;;;40.23;;
18338;SDS011;9295;44.484;11.240;2022-11-03T05:44:56;75.67;;;39.70;;
18338;SDS011;9295;44.484;11.240;2022-11-03T05:47:29;76.73;;;38.60;;
18338;SDS011;9295;44.484;11.240;2022-11-03T05:50:01;73.07;;;38.77;;
18338;SDS011;9295;44.484;11.240;2022-11-03T05:52:41;85.37;;;41.37;;
18338;SDS011;9295;44.484;11.240;2022-11-03T05:55:21;92.07;;;42.17;;
18338;SDS011;9295;44.484;11.240;2022-11-03T05:57:54;81.23;;;39.83;;
18338;SDS011;9295;44.484;11.240;2022-11-03T06:00:24;84.17;;;40.67;;
18338;SDS011;9295;44.484;11.240;2022-11-03T06:02:57;98.63;;;44.00;;
18338;SDS011;9295;44.484;11.240;2022-11-03T06:05:26;82.70;;;40.57;;
18338;SDS011;9295;44.484;11.240;2022-11-03T06:07:55;87.20;;;42.07;;
18338;SDS011;9295;44.484;11.240;2022-11-03T06:10:28;89.20;;;40.93;;
18338;SDS011;9295;44.484;11.240;2022-11-03T06:12:59;84.50;;;40.80;;
18338;SDS011;9295;44.484;11.240;2022-11-03T06:15:33;82.40;;;40.60;;
18338;SDS011;9295;44.484;11.240;2022-11-03T06:18:09;99.00;;;42.07;;
18338;SDS011;9295;44.484;11.240;2022-11-03T06:20:41;92.20;;;43.73;;
18338;SDS011;9295;44.484;11.240;2022-11-03T06:23:17;95.10;;;40.50;;
18338;SDS011;9295;44.484;11.240;2022-11-03T06:25:47;87.30;;;43.33;;
18338;SDS011;9295;44.484;11.240;2022-11-03T06:28:18;87.10;;;42.13;;
18338;SDS011;9295;44.484;11.240;2022-11-03T06:30:48;95.43;;;45.30;;
18338;SDS011;9295;44.484;11.240;2022-11-03T06:33:21;100.00;;;43.70;;
18338;SDS011;9295;44.484;11.240;2022-11-03T06:35:53;99.30;;;46.20;;
18338;SDS011;9295;44.484;11.240;2022-11-03T06:38:24;94.70;;;43.57;;
18338;SDS011;9295;44.484;11.240;2022-11-03T06:40:55;91.23;;;42.97;;
18338;SDS011;9295;44.484;11.240;2022-11-03T06:43:25;94.10;;;43.17;;
18338;SDS011;9295;44.484;11.240;2022-11-03T06:46:08;95.60;;;43.27;;
18338;SDS011;9295;44.484;11.240;2022-11-03T06:48:42;95.37;;;46.03;;
18338;SDS011;9295;44.484;11.240;2022-11-03T06:51:13;107.90;;;47.60;;
18338;SDS011;9295;44.484;11.240;2022-11-03T06:53:45;87.07;;;44.90;;
18338;SDS011;9295;44.484;11.240;2022-11-03T06:56:15;97.47;;;42.53;;
18338;SDS011;9295;44.484;11.240;2022-11-03T06:58:46;101.00;;;44.77;;
18338;SDS011;9295;44.484;11.240;2022-11-03T07:01:17;103.00;;;45.57;;
18338;SDS011;9295;44.484;11.240;2022-11-03T07:03:50;107.03;;;46.40;;
18338;SDS011;9295;44.484;11.240;2022-11-03T07:06:24;105.37;;;43.87;;
18338;SDS011;9295;44.484;11.240;2022-11-03T07:08:58;99.90;;;45.47;;
18338;SDS011;9295;44.484;11.240;2022-11-03T07:11:28;110.10;;;45.70;;
18338;SDS011;9295;44.484;11.240;2022-11-03T07:14:01;100.13;;;45.33;;
18338;SDS011;9295;44.484;11.240;2022-11-03T07:16:38;97.33;;;44.13;;
18338;SDS011;9295;44.484;11.240;2022-11-03T07:19:12;106.03;;;44.93;;
18338;SDS011;9295;44.484;11.240;2022-11-03T07:21:45;110.77;;;46.33;;
18338;SDS011;9295;44.484;11.240;2022-11-03T07:24:17;98.97;;;45.40;;
18338;SDS011;9295;44.484;11.240;2022-11-03T07:26:48;105.90;;;46.43;;
18338;SDS011;9295;44.484;11.240;2022-11-03T07:29:24;114.93;;;48.37;;
18338;SDS011;9295;44.484;11.240;2022-11-03T07:31:56;117.03;;;48.43;;
18338;SDS011;9295;44.484;11.240;2022-11-03T07:34:29;114.63;;;47.53;;
18338;SDS011;9295;44.484;11.240;2022-11-03T07:37:00;116.60;;;50.20;;
18338;SDS011;9295;44.484;11.240;2022-11-03T07:39:31;128.30;;;50.40;;
18338;SDS011;9295;44.484;11.240;2022-11-03T07:42:04;124.73;;;48.07;;
18338;SDS011;9295;44.484;11.240;2022-11-03T07:44:40;132.53;;;50.80;;
18338;SDS011;9295;44.484;11.240;2022-11-03T07:47:10;118.30;;;49.40;;
18338;SDS011;9295;44.484;11.240;2022-11-03T07:49:41;119.17;;;52.10;;
18338;SDS011;9295;44.484;11.240;2022-11-03T07:52:11;124.00;;;50.77;;
18338;SDS011;9295;44.484;11.240;2022-11-03T07:54:42;137.77;;;53.27;;
18338;SDS011;9295;44.484;11.240;2022-11-03T07:57:12;130.00;;;50.87;;
18338;SDS011;9295;44.484;11.240;2022-11-03T07:59:46;128.27;;;50.43;;
18338;SDS011;9295;44.484;11.240;2022-11-03T08:02:19;128.97;;;52.30;;
18338;SDS011;9295;44.484;11.240;2022-11-03T08:04:57;124.53;;;52.20;;
18338;SDS011;9295;44.484;11.240;2022-11-03T08:07:25;129.13;;;52.90;;
18338;SDS011;9295;44.484;11.240;2022-11-03T08:09:54;125.93;;;53.83;;
18338;SDS011;9295;44.484;11.240;2022-11-03T08:12:23;125.10;;;52.90;;
18338;SDS011;9295;44.484;11.240;2022-11-03T08:14:52;137.57;;;54.07;;
18338;SDS011;9295;44.484;11.240;2022-11-03T08:17:20;117.27;;;51.00;;
18338;SDS011;9295;44.484;11.240;2022-11-03T08:19:49;116.40;;;52.07;;
18338;SDS011;9295;44.484;11.240;2022-11-03T08:22:18;114.67;;;51.23;;
18338;SDS011;9295;44.484;11.240;2022-11-03T08:24:48;116.90;;;54.77;;
18338;SDS011;9295;44.484;11.240;2022-11-03T08:27:17;122.63;;;54.20;;
18338;SDS011;9295;44.484;11.240;2022-11-03T08:29:46;126.03;;;52.00;;
18338;SDS011;9295;44.484;11.240;2022-11-03T08:32:14;139.40;;;57.00;;
18338;SDS011;9295;44.484;11.240;2022-11-03T08:34:43;140.30;;;56.30;;
18338;SDS011;9295;44.484;11.240;2022-11-03T08:37:11;237.20;;;77.60;;
18338;SDS011;9295;44.484;11.240;2022-11-03T08:39:41;217.53;;;71.70;;
18338;SDS011;9295;44.484;11.240;2022-11-03T08:42:09;210.43;;;71.30;;
18338;SDS011;9295;44.484;11.240;2022-11-03T08:44:38;221.30;;;74.33;;
18338;SDS011;9295;44.484;11.240;2022-11-03T08:47:06;206.30;;;67.63;;
18338;SDS011;9295;44.484;11.240;2022-11-03T08:49:34;237.17;;;78.50;;
18338;SDS011;9295;44.484;11.240;2022-11-03T08:52:03;242.90;;;79.17;;
18338;SDS011;9295;44.484;11.240;2022-11-03T08:54:32;239.50;;;75.87;;
18338;SDS011;9295;44.484;11.240;2022-11-03T08:57:01;238.60;;;75.80;;
18338;SDS011;9295;44.484;11.240;2022-11-03T08:59:30;249.17;;;78.70;;
18338;SDS011;9295;44.484;11.240;2022-11-03T09:01:59;236.27;;;74.90;;
18338;SDS011;9295;44.484;11.240;2022-11-03T09:04:27;232.97;;;76.83;;
18338;SDS011;9295;44.484;11.240;2022-11-03T09:06:56;271.50;;;82.30;;
18338;SDS011;9295;44.484;11.240;2022-11-03T09:09:24;279.60;;;81.50;;
18338;SDS011;9295;44.484;11.240;2022-11-03T09:12:14;258.00;;;81.70;;
18338;SDS011;9295;44.484;11.240;2022-11-03T09:14:42;286.77;;;86.30;;
18338;SDS011;9295;44.484;11.240;2022-11-03T09:17:11;277.03;;;81.87;;
18338;SDS011;9295;44.484;11.240;2022-11-03T09:19:39;278.67;;;84.60;;
18338;SDS011;9295;44.484;11.240;2022-11-03T09:22:08;292.60;;;83.60;;
18338;SDS011;9295;44.484;11.240;2022-11-03T09:24:36;268.07;;;75.80;;
18338;SDS011;9295;44.484;11.240;2022-11-03T09:27:04;259.20;;;76.03;;
18338;SDS011;9295;44.484;11.240;2022-11-03T09:29:34;263.80;;;77.67;;
18338;SDS011;9295;44.484;11.240;2022-11-03T09:32:23;258.40;;;76.93;;
18338;SDS011;9295;44.484;11.240;2022-11-03T09:34:51;251.57;;;76.30;;
18338;SDS011;9295;44.484;11.240;2022-11-03T09:37:20;261.30;;;80.63;;
18338;SDS011;9295;44.484;11.240;2022-11-03T09:39:49;256.20;;;77.60;;
18338;SDS011;9295;44.484;11.240;2022-11-03T09:42:17;225.80;;;72.40;;
18338;SDS011;9295;44.484;11.240;2022-11-03T09:44:47;228.07;;;72.13;;
18338;SDS011;9295;44.484;11.240;2022-11-03T09:47:18;235.60;;;72.47;;
18338;SDS011;9295;44.484;11.240;2022-11-03T09:49:50;240.33;;;75.93;;
18338;SDS011;9295;44.484;11.240;2022-11-03T09:52:19;223.67;;;69.67;;
18338;SDS011;9295;44.484;11.240;2022-11-03T09:54:50;211.53;;;71.40;;
18338;SDS011;9295;44.484;11.240;2022-11-03T09:57:21;201.70;;;66.10;;
18338;SDS011;9295;44.484;11.240;2022-11-03T09:59:53;197.57;;;64.83;;
18338;SDS011;9295;44.484;11.240;2022-11-03T10:02:24;194.87;;;64.73;;
18338;SDS011;9295;44.484;11.240;2022-11-03T10:04:54;180.60;;;65.30;;
18338;SDS011;9295;44.484;11.240;2022-11-03T10:07:26;183.73;;;60.50;;
18338;SDS011;9295;44.484;11.240;2022-11-03T10:09:56;178.10;;;60.43;;
18338;SDS011;9295;44.484;11.240;2022-11-03T10:12:26;177.57;;;61.90;;
18338;SDS011;9295;44.484;11.240;2022-11-03T10:15:00;185.63;;;56.60;;
18338;SDS011;9295;44.484;11.240;2022-11-03T10:17:28;181.60;;;60.10;;
18338;SDS011;9295;44.484;11.240;2022-11-03T10:19:57;183.57;;;62.60;;
18338;SDS011;9295;44.484;11.240;2022-11-03T10:22:27;176.50;;;60.70;;
18338;SDS011;9295;44.484;11.240;2022-11-03T10:28:12;171.00;;;58.97;;
18338;SDS011;9295;44.484;11.240;2022-11-03T10:30:50;163.33;;;57.13;;
18338;SDS011;9295;44.484;11.240;2022-11-03T10:33:37;157.27;;;56.77;;
18338;SDS011;9295;44.484;11.240;2022-11-03T10:36:20;171.70;;;59.37;;
18338;SDS011;9295;44.484;11.240;2022-11-03T10:38:50;179.37;;;59.43;;
18338;SDS011;9295;44.484;11.240;2022-11-03T10:41:20;162.17;;;56.20;;
18338;SDS011;9295;44.484;11.240;2022-11-03T10:43:59;149.07;;;55.77;;
18338;SDS011;9295;44.484;11.240;2022-11-03T10:46:35;158.53;;;58.10;;
18338;SDS011;9295;44.484;11.240;2022-11-03T10:49:17;164.67;;;58.20;;
18338;SDS011;9295;44.484;11.240;2022-11-03T10:51:47;145.17;;;54.97;;
18338;SDS011;9295;44.484;11.240;2022-11-03T10:54:18;175.53;;;58.20;;
18338;SDS011;9295;44.484;11.240;2022-11-03T10:56:49;151.40;;;56.20;;
18338;SDS011;9295;44.484;11.240;2022-11-03T10:59:18;166.47;;;57.17;;
18338;SDS011;9295;44.484;11.240;2022-11-03T11:01:50;160.50;;;58.23;;
18338;SDS011;9295;44.484;11.240;2022-11-03T11:04:19;165.33;;;55.07;;
18338;SDS011;9295;44.484;11.240;2022-11-03T11:06:47;150.27;;;55.20;;
18338;SDS011;9295;44.484;11.240;2022-11-03T11:09:18;153.87;;;54.33;;
18338;SDS011;9295;44.484;11.240;2022-11-03T11:11:57;159.67;;;55.87;;
18338;SDS011;9295;44.484;11.240;2022-11-03T11:14:34;163.07;;;55.23;;
18338;SDS011;9295;44.484;11.240;2022-11-03T11:17:13;149.23;;;54.20;;
18338;SDS011;9295;44.484;11.240;2022-11-03T11:20:30;165.43;;;54.00;;
18338;SDS011;9295;44.484;11.240;2022-11-03T11:26:15;152.33;;;54.70;;
18338;SDS011;9295;44.484;11.240;2022-11-03T11:44:56;126.73;;;49.73;;
18338;SDS011;9295;44.484;11.240;2022-11-03T11:47:29;123.10;;;50.53;;
18338;SDS011;9295;44.484;11.240;2022-11-03T11:50:16;129.73;;;50.77;;
18338;SDS011;9295;44.484;11.240;2022-11-03T11:52:58;125.23;;;49.37;;
18338;SDS011;9295;44.484;11.240;2022-11-03T11:55:30;125.03;;;50.10;;
18338;SDS011;9295;44.484;11.240;2022-11-03T11:58:24;134.20;;;51.07;;
18338;SDS011;9295;44.484;11.240;2022-11-03T12:00:58;135.20;;;49.43;;
18338;SDS011;9295;44.484;11.240;2022-11-03T12:03:29;128.60;;;47.70;;
18338;SDS011;9295;44.484;11.240;2022-11-03T12:06:00;119.23;;;49.73;;
18338;SDS011;9295;44.484;11.240;2022-11-03T12:08:29;117.77;;;48.33;;
18338;SDS011;9295;44.484;11.240;2022-11-03T12:10:59;122.67;;;46.47;;
18338;SDS011;9295;44.484;11.240;2022-11-03T12:13:34;135.57;;;49.03;;
18338;SDS011;9295;44.484;11.240;2022-11-03T12:16:26;125.63;;;48.77;;
18338;SDS011;9295;44.484;11.240;2022-11-03T12:18:55;130.63;;;48.60;;
18338;SDS011;9295;44.484;11.240;2022-11-03T12:21:43;123.90;;;46.07;;
18338;SDS011;9295;44.484;11.240;2022-11-03T12:24:25;130.37;;;48.73;;
18338;SDS011;9295;44.484;11.240;2022-11-03T12:27:18;136.17;;;49.37;;
18338;SDS011;9295;44.484;11.240;2022-11-03T12:30:04;125.13;;;47.17;;
18338;SDS011;9295;44.484;11.240;2022-11-03T12:32:38;118.07;;;49.20;;
18338;SDS011;9295;44.484;11.240;2022-11-03T12:35:07;124.00;;;48.23;;
18338;SDS011;9295;44.484;11.240;2022-11-03T12:37:36;128.00;;;47.87;;
18338;SDS011;9295;44.484;11.240;2022-11-03T12:40:05;120.87;;;47.80;;
18338;SDS011;9295;44.484;11.240;2022-11-03T12:42:34;124.90;;;49.13;;
18338;SDS011;9295;44.484;11.240;2022-11-03T12:45:05;122.70;;;48.87;;
18338;SDS011;9295;44.484;11.240;2022-11-03T12:47:34;131.07;;;48.43;;
18338;SDS011;9295;44.484;11.240;2022-11-03T12:50:02;123.40;;;49.47;;
18338;SDS011;9295;44.484;11.240;2022-11-03T12:52:31;113.73;;;47.03;;
18338;SDS011;9295;44.484;11.240;2022-11-03T12:54:59;125.33;;;50.00;;
18338;SDS011;9295;44.484;11.240;2022-11-03T12:57:28;133.03;;;49.40;;
18338;SDS011;9295;44.484;11.240;2022-11-03T12:59:56;117.83;;;49.03;;
18338;SDS011;9295;44.484;11.240;2022-11-03T13:02:26;125.37;;;49.50;;
18338;SDS011;9295;44.484;11.240;2022-11-03T13:04:54;122.33;;;46.87;;
18338;SDS011;9295;44.484;11.240;2022-11-03T13:07:23;116.23;;;46.50;;
18338;SDS011;9295;44.484;11.240;2022-11-03T13:09:59;114.57;;;46.87;;
18338;SDS011;9295;44.484;11.240;2022-11-03T13:12:28;126.50;;;48.53;;
18338;SDS011;9295;44.484;11.240;2022-11-03T13:15:01;123.37;;;48.10;;
18338;SDS011;9295;44.484;11.240;2022-11-03T13:17:32;122.17;;;47.50;;
18338;SDS011;9295;44.484;11.240;2022-11-03T13:20:21;125.30;;;50.53;;
18338;SDS011;9295;44.484;11.240;2022-11-03T13:22:50;117.30;;;47.47;;
18338;SDS011;9295;44.484;11.240;2022-11-03T13:25:18;129.73;;;47.20;;
18338;SDS011;9295;44.484;11.240;2022-11-03T13:27:50;131.47;;;46.97;;
18338;SDS011;9295;44.484;11.240;2022-11-03T13:30:19;112.07;;;45.87;;
18338;SDS011;9295;44.484;11.240;2022-11-03T13:32:49;116.67;;;44.87;;
18338;SDS011;9295;44.484;11.240;2022-11-03T13:35:18;115.90;;;47.73;;
18338;SDS011;9295;44.484;11.240;2022-11-03T13:37:47;117.57;;;45.30;;
18338;SDS011;9295;44.484;11.240;2022-11-03T13:40:15;115.40;;;47.40;;
18338;SDS011;9295;44.484;11.240;2022-11-03T13:43:04;117.93;;;47.13;;
18338;SDS011;9295;44.484;11.240;2022-11-03T13:45:33;117.00;;;48.07;;
18338;SDS011;9295;44.484;11.240;2022-11-03T13:48:03;112.97;;;45.20;;
18338;SDS011;9295;44.484;11.240;2022-11-03T13:50:51;113.33;;;46.60;;
18338;SDS011;9295;44.484;11.240;2022-11-03T13:53:20;122.97;;;47.30;;
18338;SDS011;9295;44.484;11.240;2022-11-03T13:56:09;116.90;;;47.57;;
18338;SDS011;9295;44.484;11.240;2022-11-03T13:58:45;116.60;;;46.67;;
18338;SDS011;9295;44.484;11.240;2022-11-03T14:01:33;118.40;;;45.40;;
18338;SDS011;9295;44.484;11.240;2022-11-03T14:04:04;121.13;;;47.80;;
18338;SDS011;9295;44.484;11.240;2022-11-03T14:06:53;124.37;;;46.80;;
18338;SDS011;9295;44.484;11.240;2022-11-03T14:09:21;114.13;;;45.63;;
18338;SDS011;9295;44.484;11.240;2022-11-03T14:11:50;115.83;;;48.53;;
18338;SDS011;9295;44.484;11.240;2022-11-03T14:14:36;117.13;;;46.97;;
18338;SDS011;9295;44.484;11.240;2022-11-03T14:17:04;127.67;;;49.27;;
18338;SDS011;9295;44.484;11.240;2022-11-03T14:19:34;119.40;;;45.30;;
18338;SDS011;9295;44.484;11.240;2022-11-03T14:22:11;118.17;;;46.50;;
18338;SDS011;9295;44.484;11.240;2022-11-03T14:24:40;144.77;;;51.80;;
18338;SDS011;9295;44.484;11.240;2022-11-03T14:27:08;114.47;;;45.63;;
18338;SDS011;9295;44.484;11.240;2022-11-03T14:29:36;127.43;;;47.70;;
18338;SDS011;9295;44.484;11.240;2022-11-03T14:32:05;127.13;;;47.13;;
18338;SDS011;9295;44.484;11.240;2022-11-03T14:34:35;124.17;;;47.70;;
18338;SDS011;9295;44.484;11.240;2022-11-03T14:37:04;126.27;;;46.67;;
18338;SDS011;9295;44.484;11.240;2022-11-03T14:39:34;118.17;;;47.50;;
18338;SDS011;9295;44.484;11.240;2022-11-03T14:42:03;121.10;;;49.67;;
18338;SDS011;9295;44.484;11.240;2022-11-03T14:44:30;129.10;;;48.87;;
18338;SDS011;9295;44.484;11.240;2022-11-03T14:47:00;125.73;;;49.30;;
18338;SDS011;9295;44.484;11.240;2022-11-03T14:49:30;130.07;;;52.00;;
18338;SDS011;9295;44.484;11.240;2022-11-03T14:52:02;122.53;;;49.00;;
18338;SDS011;9295;44.484;11.240;2022-11-03T14:54:33;125.67;;;48.10;;
18338;SDS011;9295;44.484;11.240;2022-11-03T14:57:02;128.87;;;50.17;;
18338;SDS011;9295;44.484;11.240;2022-11-03T14:59:32;125.70;;;49.27;;
18338;SDS011;9295;44.484;11.240;2022-11-03T15:02:01;117.23;;;48.40;;
18338;SDS011;9295;44.484;11.240;2022-11-03T15:04:30;127.17;;;52.63;;
18338;SDS011;9295;44.484;11.240;2022-11-03T15:06:58;135.83;;;51.07;;
18338;SDS011;9295;44.484;11.240;2022-11-03T15:09:28;127.67;;;50.33;;
18338;SDS011;9295;44.484;11.240;2022-11-03T15:11:57;124.20;;;48.07;;
18338;SDS011;9295;44.484;11.240;2022-11-03T15:14:25;130.33;;;51.30;;